createdAt,value
2023-07-19T00:00:00.717Z,101077.28
2023-07-19T00:00:15.091Z,101076.44
2023-07-19T00:00:48.032Z,101077.41
2023-07-19T00:01:19.835Z,101080.13
2023-07-19T00:01:32.976Z,101073.03
2023-07-19T00:01:46.657Z,101073.03
2023-07-19T00:01:59.428Z,101070.34
2023-07-19T00:02:12.135Z,101077.41
2023-07-19T00:02:24.801Z,101073.03
2023-07-19T00:02:37.384Z,101083.81
2023-07-19T00:02:49.991Z,101075.72
2023-07-19T00:03:02.698Z,101082.97
2023-07-19T00:03:15.390Z,101076.56
2023-07-19T00:03:28.052Z,101080.13
2023-07-19T00:03:40.652Z,101078.44
2023-07-19T00:03:54.263Z,101074.88
2023-07-19T00:04:06.884Z,101078.44
2023-07-19T00:04:19.503Z,101073.03
2023-07-19T00:04:32.226Z,101078.44
2023-07-19T00:04:44.821Z,101082.81
2023-07-19T00:04:57.374Z,101083.81
2023-07-19T00:05:10.509Z,101073.03
2023-07-19T00:05:23.135Z,101073.03
2023-07-19T00:05:36.003Z,101074.88
2023-07-19T00:05:50.224Z,101071.31
2023-07-19T00:06:03.027Z,101073.19
2023-07-19T00:06:15.720Z,101071.50
2023-07-19T00:06:28.345Z,101079.59
2023-07-19T00:06:40.872Z,101071.63
2023-07-19T00:06:53.471Z,101078.75
2023-07-19T00:07:06.626Z,101073.34
2023-07-19T00:07:19.286Z,101070.78
2023-07-19T00:07:32.088Z,101073.63
2023-07-19T00:07:46.103Z,101081.56
2023-07-19T00:07:59.069Z,101075.34
2023-07-19T00:08:12.726Z,101065.53
2023-07-19T00:08:25.308Z,101069.25
2023-07-19T00:08:37.948Z,101067.38
2023-07-19T00:08:50.604Z,101071.94
2023-07-19T00:09:03.392Z,101080.03
2023-07-19T00:09:16.968Z,101074.63
2023-07-19T00:09:29.828Z,101072.91
2023-07-19T00:09:42.396Z,101075.63
2023-07-19T00:09:54.982Z,101070.22
2023-07-19T00:10:08.441Z,101072.91
2023-07-19T00:10:21.078Z,101069.38
2023-07-19T00:10:33.671Z,101073.94
2023-07-19T00:10:46.356Z,101071.22
2023-07-19T00:10:59.125Z,101073.94
2023-07-19T00:11:12.688Z,101071.22
2023-07-19T00:11:25.591Z,101068.53
2023-07-19T00:11:38.199Z,101073.94
2023-07-19T00:11:50.773Z,101068.53
2023-07-19T00:12:03.853Z,101067.66
2023-07-19T00:12:16.558Z,101067.66
2023-07-19T00:12:33.929Z,101068.53
2023-07-19T00:12:56.773Z,101074.78
2023-07-19T00:13:11.023Z,101069.38
2023-07-19T00:13:24.481Z,101074.78
2023-07-19T00:13:37.295Z,101069.38
2023-07-19T00:13:49.859Z,101065.84
2023-07-19T00:14:06.985Z,101074.78
2023-07-19T00:14:19.949Z,101067.66
2023-07-19T00:14:33.891Z,101065.84
2023-07-19T00:14:46.489Z,101070.38
2023-07-19T00:14:59.135Z,101073.94
2023-07-19T00:15:12.866Z,101058.75
2023-07-19T00:15:25.789Z,101066.81
2023-07-19T00:15:38.663Z,101061.44
2023-07-19T00:15:51.198Z,101066.81
2023-07-19T00:16:04.361Z,101065.97
2023-07-19T00:16:17.020Z,101065.97
2023-07-19T00:16:29.756Z,101063.28
2023-07-19T00:16:42.387Z,101066.81
2023-07-19T00:16:55.144Z,101064.31
2023-07-19T00:17:08.804Z,101061.44
2023-07-19T00:17:21.678Z,101066.13
2023-07-19T00:17:34.371Z,101060.59
2023-07-19T00:17:46.968Z,101068.69
2023-07-19T00:17:59.566Z,101065.13
2023-07-19T00:18:12.401Z,101066.81
2023-07-19T00:18:25.008Z,101065.13
2023-07-19T00:18:37.661Z,101065.97
2023-07-19T00:18:50.229Z,101065.13
2023-07-19T00:19:21.310Z,101071.38
2023-07-19T00:19:34.531Z,101059.75
2023-07-19T00:19:47.120Z,101070.53
2023-07-19T00:19:59.711Z,101072.22
2023-07-19T00:20:12.750Z,101068.81
2023-07-19T00:20:25.333Z,101065.13
2023-07-19T00:20:37.931Z,101065.13
2023-07-19T00:20:50.606Z,101070.53
2023-07-19T00:21:04.300Z,101066.81
2023-07-19T00:21:17.119Z,101067.00
2023-07-19T00:21:29.707Z,101071.50
2023-07-19T00:21:42.272Z,101069.53
2023-07-19T00:21:54.832Z,101065.97
2023-07-19T00:22:08.708Z,101065.13
2023-07-19T00:22:21.251Z,101064.31
2023-07-19T00:22:33.944Z,101064.31
2023-07-19T00:22:47.668Z,101064.31
2023-07-19T00:23:00.356Z,101063.44
2023-07-19T00:23:13.115Z,101069.69
2023-07-19T00:23:25.858Z,101064.44
2023-07-19T00:23:39.488Z,101060.03
2023-07-19T00:23:53.344Z,101060.91
2023-07-19T00:24:06.664Z,101061.75
2023-07-19T00:24:19.260Z,101053.66
2023-07-19T00:24:32.879Z,101054.63
2023-07-19T00:24:45.451Z,101064.56
2023-07-19T00:24:58.320Z,101056.50
2023-07-19T00:25:11.177Z,101060.03
2023-07-19T00:25:23.734Z,101060.03
2023-07-19T00:25:36.321Z,101059.19
2023-07-19T00:25:49.233Z,101065.41
2023-07-19T00:26:01.921Z,101060.03
2023-07-19T00:26:15.682Z,101063.59
2023-07-19T00:26:28.326Z,101064.56
2023-07-19T00:26:41.237Z,101059.19
2023-07-19T00:26:54.063Z,101059.19
2023-07-19T00:27:07.043Z,101058.34
2023-07-19T00:27:19.639Z,101061.03
2023-07-19T00:27:32.193Z,101061.03
2023-07-19T00:27:44.854Z,101063.72
2023-07-19T00:27:57.444Z,101064.72
2023-07-19T00:28:11.002Z,101062.03
2023-07-19T00:28:23.573Z,101058.47
2023-07-19T00:28:36.150Z,101059.31
2023-07-19T00:28:49.315Z,101056.63
2023-07-19T00:29:02.200Z,101060.34
2023-07-19T00:29:14.787Z,101057.63
2023-07-19T00:29:27.423Z,101061.31
2023-07-19T00:29:41.370Z,101051.53
2023-07-19T00:29:53.954Z,101058.63
2023-07-19T00:30:08.834Z,101059.63
2023-07-19T00:30:21.424Z,101060.66
2023-07-19T00:30:34.358Z,101063.34
2023-07-19T00:30:46.933Z,101059.78
2023-07-19T00:31:03.354Z,101059.06
2023-07-19T00:31:15.899Z,101060.91
2023-07-19T00:31:28.493Z,101061.75
2023-07-19T00:31:42.028Z,101052.84
2023-07-19T00:31:54.576Z,101056.53
2023-07-19T00:32:07.898Z,101058.34
2023-07-19T00:32:20.561Z,101056.69
2023-07-19T00:32:33.120Z,101052.25
2023-07-19T00:32:45.764Z,101052.25
2023-07-19T00:32:58.645Z,101055.13
2023-07-19T00:33:11.229Z,101056.97
2023-07-19T00:33:25.421Z,101051.59
2023-07-19T00:33:37.972Z,101050.88
2023-07-19T00:33:50.567Z,101054.44
2023-07-19T00:34:03.219Z,101050.00
2023-07-19T00:34:16.079Z,101052.72
2023-07-19T00:34:28.714Z,101048.34
2023-07-19T00:34:41.388Z,101051.88
2023-07-19T00:34:54.319Z,101052.72
2023-07-19T00:35:08.142Z,101044.78
2023-07-19T00:35:21.913Z,101045.63
2023-07-19T00:35:34.657Z,101054.69
2023-07-19T00:35:47.154Z,101052.00
2023-07-19T00:35:59.698Z,101048.47
2023-07-19T00:36:12.900Z,101048.47
2023-07-19T00:36:25.459Z,101050.31
2023-07-19T00:36:38.064Z,101049.31
2023-07-19T00:36:51.089Z,101054.69
2023-07-19T00:37:03.969Z,101050.31
2023-07-19T00:37:17.759Z,101049.63
2023-07-19T00:37:30.404Z,101049.63
2023-07-19T00:37:44.258Z,101049.63
2023-07-19T00:37:56.811Z,101044.22
2023-07-19T00:38:09.346Z,101046.91
2023-07-19T00:38:22.929Z,101051.47
2023-07-19T00:38:35.512Z,101046.91
2023-07-19T00:38:48.076Z,101048.91
2023-07-19T00:39:00.605Z,101047.22
2023-07-19T00:39:13.361Z,101049.94
2023-07-19T00:39:26.908Z,101044.53
2023-07-19T00:39:39.512Z,101048.22
2023-07-19T00:39:52.043Z,101043.81
2023-07-19T00:40:06.012Z,101043.97
2023-07-19T00:40:18.726Z,101037.72
2023-07-19T00:40:33.438Z,101049.34
2023-07-19T00:40:46.281Z,101046.78
2023-07-19T00:40:58.883Z,101044.28
2023-07-19T00:41:12.360Z,101043.41
2023-07-19T00:41:25.031Z,101049.66
2023-07-19T00:41:37.559Z,101046.97
2023-07-19T00:41:50.112Z,101048.78
2023-07-19T00:42:02.714Z,101044.41
2023-07-19T00:42:15.255Z,101042.69
2023-07-19T00:42:27.886Z,101043.69
2023-07-19T00:42:40.475Z,101044.53
2023-07-19T00:42:56.440Z,101037.47
2023-07-19T00:43:11.220Z,101042.00
2023-07-19T00:43:23.719Z,101045.69
2023-07-19T00:43:37.555Z,101040.31
2023-07-19T00:43:50.096Z,101040.31
2023-07-19T00:44:04.719Z,101043.13
2023-07-19T00:44:17.353Z,101037.75
2023-07-19T00:44:29.970Z,101037.75
2023-07-19T00:44:44.287Z,101036.91
2023-07-19T00:44:56.884Z,101040.59
2023-07-19T00:45:10.434Z,101048.69
2023-07-19T00:45:24.167Z,101039.72
2023-07-19T00:45:37.333Z,101033.50
2023-07-19T00:45:54.347Z,101038.03
2023-07-19T00:46:08.815Z,101041.59
2023-07-19T00:46:21.981Z,101037.03
2023-07-19T00:46:34.971Z,101038.88
2023-07-19T00:46:47.732Z,101036.19
2023-07-19T00:47:03.691Z,101038.03
2023-07-19T00:47:18.493Z,101037.22
2023-07-19T00:47:31.784Z,101037.22
2023-07-19T00:47:44.467Z,101039.91
2023-07-19T00:47:57.867Z,101032.78
2023-07-19T00:48:10.816Z,101038.19
2023-07-19T00:48:23.966Z,101036.34
2023-07-19T00:48:37.047Z,101036.34
2023-07-19T00:48:50.365Z,101039.03
2023-07-19T00:49:04.308Z,101039.03
2023-07-19T00:49:17.209Z,101038.19
2023-07-19T00:49:30.067Z,101038.19
2023-07-19T00:49:45.322Z,101036.50
2023-07-19T00:49:58.374Z,101039.19
2023-07-19T00:50:11.114Z,101038.31
2023-07-19T00:50:24.434Z,101043.72
2023-07-19T00:50:37.428Z,101033.94
2023-07-19T00:50:51.416Z,101038.50
2023-07-19T00:51:05.090Z,101037.63
2023-07-19T00:51:19.072Z,101039.47
2023-07-19T00:51:32.322Z,101036.78
2023-07-19T00:51:44.929Z,101039.47
2023-07-19T00:51:59.397Z,101034.09
2023-07-19T00:52:12.176Z,101044.00
2023-07-19T00:52:24.889Z,101038.63
2023-07-19T00:52:38.417Z,101037.78
2023-07-19T00:52:53.043Z,101039.47
2023-07-19T00:53:06.436Z,101043.16
2023-07-19T00:53:20.995Z,101032.41
2023-07-19T00:53:33.896Z,101034.25
2023-07-19T00:53:48.902Z,101037.78
2023-07-19T00:54:02.830Z,101035.09
2023-07-19T00:54:16.832Z,101037.78
2023-07-19T00:54:30.149Z,101036.06
2023-07-19T00:54:43.026Z,101036.94
2023-07-19T00:54:56.828Z,101035.09
2023-07-19T00:55:10.245Z,101033.38
2023-07-19T00:55:23.011Z,101033.25
2023-07-19T00:55:36.023Z,101030.69
2023-07-19T00:55:50.121Z,101038.63
2023-07-19T00:56:02.878Z,101036.06
2023-07-19T00:56:15.632Z,101028.84
2023-07-19T00:56:29.216Z,101031.56
2023-07-19T00:56:43.401Z,101033.38
2023-07-19T00:56:57.306Z,101026.16
2023-07-19T00:57:09.850Z,101027.00
2023-07-19T00:57:22.885Z,101033.38
2023-07-19T00:57:35.872Z,101030.69
2023-07-19T00:57:48.694Z,101032.41
2023-07-19T00:58:01.332Z,101027.84
2023-07-19T00:58:13.967Z,101032.41
2023-07-19T00:58:27.185Z,101030.69
2023-07-19T00:58:42.179Z,101032.41
2023-07-19T00:58:55.010Z,101035.22
2023-07-19T00:59:08.257Z,101033.38
2023-07-19T00:59:23.804Z,101031.69
2023-07-19T00:59:36.621Z,101031.69
2023-07-19T00:59:50.689Z,101027.28
2023-07-19T01:00:05.632Z,101029.97
2023-07-19T01:00:20.812Z,101029.13
2023-07-19T01:00:33.880Z,101025.59
2023-07-19T01:00:47.597Z,101029.25
2023-07-19T01:01:00.953Z,101033.69
2023-07-19T01:01:13.710Z,101029.25
2023-07-19T01:01:27.623Z,101032.84
2023-07-19T01:01:42.938Z,101028.44
2023-07-19T01:01:56.283Z,101025.88
2023-07-19T01:02:09.199Z,101031.25
2023-07-19T01:02:22.547Z,101024.19
2023-07-19T01:02:36.210Z,101019.63
2023-07-19T01:02:49.657Z,101024.19
2023-07-19T01:03:02.447Z,101018.78
2023-07-19T01:03:15.258Z,101024.19
2023-07-19T01:03:27.858Z,101022.50
2023-07-19T01:03:40.513Z,101029.56
2023-07-19T01:03:53.279Z,101024.19
2023-07-19T01:04:06.124Z,101021.50
2023-07-19T01:04:18.830Z,101019.81
2023-07-19T01:04:31.757Z,101019.81
2023-07-19T01:04:46.407Z,101023.34
2023-07-19T01:04:59.028Z,101019.81
2023-07-19T01:05:11.720Z,101019.81
2023-07-19T01:05:24.467Z,101024.31
2023-07-19T01:05:37.738Z,101022.50
2023-07-19T01:05:50.570Z,101018.09
2023-07-19T01:06:04.825Z,101019.09
2023-07-19T01:06:20.050Z,101017.25
2023-07-19T01:06:32.637Z,101016.41
2023-07-19T01:06:45.676Z,101013.72
2023-07-19T01:06:59.742Z,101022.63
2023-07-19T01:07:12.471Z,101015.41
2023-07-19T01:07:25.520Z,101024.47
2023-07-19T01:07:38.855Z,101018.22
2023-07-19T01:07:52.011Z,101013.72
2023-07-19T01:08:04.998Z,101021.78
2023-07-19T01:08:19.402Z,101014.69
2023-07-19T01:08:32.435Z,101017.38
2023-07-19T01:08:45.054Z,101014.69
2023-07-19T01:08:58.650Z,101022.78
2023-07-19T01:09:12.235Z,101026.47
2023-07-19T01:09:25.820Z,101018.41
2023-07-19T01:09:38.421Z,101014.81
2023-07-19T01:09:51.931Z,101022.91
2023-07-19T01:10:05.502Z,101016.69
2023-07-19T01:10:18.377Z,101020.38
2023-07-19T01:10:33.377Z,101022.19
2023-07-19T01:10:46.657Z,101015.25
2023-07-19T01:10:59.468Z,101018.81
2023-07-19T01:11:12.100Z,101017.94
2023-07-19T01:11:24.980Z,101012.56
2023-07-19T01:11:37.646Z,101010.03
2023-07-19T01:11:50.271Z,101014.56
2023-07-19T01:12:03.360Z,101018.13
2023-07-19T01:12:16.953Z,101014.72
2023-07-19T01:12:29.804Z,101018.25
2023-07-19T01:12:42.355Z,101015.69
2023-07-19T01:13:04.975Z,101011.47
2023-07-19T01:13:17.586Z,101011.47
2023-07-19T01:13:30.205Z,101015.16
2023-07-19T01:13:51.847Z,101008.06
2023-07-19T01:14:04.442Z,101013.56
2023-07-19T01:14:17.999Z,101009.06
2023-07-19T01:14:30.595Z,101009.19
2023-07-19T01:14:43.204Z,101008.34
2023-07-19T01:14:57.193Z,101008.34
2023-07-19T01:15:10.602Z,101010.19
2023-07-19T01:15:23.300Z,101007.47
2023-07-19T01:15:36.226Z,101011.19
2023-07-19T01:15:49.092Z,101014.00
2023-07-19T01:16:02.993Z,101009.47
2023-07-19T01:16:15.621Z,101010.47
2023-07-19T01:16:28.784Z,101012.31
2023-07-19T01:16:41.373Z,101011.50
2023-07-19T01:16:53.950Z,101007.06
2023-07-19T01:17:06.731Z,101013.31
2023-07-19T01:17:19.287Z,101016.16
2023-07-19T01:17:31.851Z,101016.16
2023-07-19T01:17:44.799Z,101012.59
2023-07-19T01:17:57.454Z,101022.53
2023-07-19T01:18:11.151Z,101010.91
2023-07-19T01:18:23.778Z,101009.19
2023-07-19T01:18:36.327Z,101009.19
2023-07-19T01:18:49.337Z,101015.44
2023-07-19T01:19:02.005Z,101011.88
2023-07-19T01:19:16.889Z,101014.56
2023-07-19T01:19:29.481Z,101019.00
2023-07-19T01:19:43.063Z,101013.59
2023-07-19T01:19:55.610Z,101012.75
2023-07-19T01:20:09.841Z,101014.56
2023-07-19T01:20:22.750Z,101010.06
2023-07-19T01:20:35.686Z,101012.75
2023-07-19T01:20:48.695Z,101013.59
2023-07-19T01:21:13.571Z,101019.00
2023-07-19T01:21:35.022Z,101017.97
2023-07-19T01:21:50.076Z,101011.75
2023-07-19T01:22:02.862Z,101021.69
2023-07-19T01:22:16.012Z,101006.38
2023-07-19T01:22:32.994Z,101007.22
2023-07-19T01:22:47.391Z,101018.84
2023-07-19T01:23:00.307Z,101005.41
2023-07-19T01:23:13.092Z,101014.31
2023-07-19T01:23:26.740Z,101013.47
2023-07-19T01:23:39.754Z,101012.59
2023-07-19T01:23:52.552Z,101009.91
2023-07-19T01:24:05.792Z,101014.44
2023-07-19T01:24:19.010Z,101018.84
2023-07-19T01:24:31.574Z,101013.47
2023-07-19T01:24:44.092Z,101012.59
2023-07-19T01:24:56.602Z,101012.59
2023-07-19T01:25:09.681Z,101013.59
2023-07-19T01:25:22.604Z,101006.38
2023-07-19T01:25:36.289Z,101014.44
2023-07-19T01:25:48.846Z,101015.28
2023-07-19T01:26:01.412Z,101011.75
2023-07-19T01:26:13.988Z,101011.75
2023-07-19T01:26:26.541Z,101010.91
2023-07-19T01:26:39.092Z,101013.59
2023-07-19T01:26:51.700Z,101017.13
2023-07-19T01:27:20.668Z,101011.75
2023-07-19T01:27:33.745Z,101016.28
2023-07-19T01:27:47.305Z,101017.13
2023-07-19T01:27:59.978Z,101014.56
2023-07-19T01:28:12.810Z,101011.88
2023-07-19T01:28:25.369Z,101012.91
2023-07-19T01:28:38.729Z,101010.19
2023-07-19T01:28:51.272Z,101007.50
2023-07-19T01:29:04.144Z,101015.59
2023-07-19T01:29:17.708Z,101017.44
2023-07-19T01:29:30.403Z,101016.56
2023-07-19T01:29:42.977Z,101015.72
2023-07-19T01:29:55.555Z,101011.19
2023-07-19T01:30:09.360Z,101019.25
2023-07-19T01:30:21.876Z,101017.56
2023-07-19T01:30:34.447Z,101014.03
2023-07-19T01:30:46.983Z,101014.88
2023-07-19T01:31:04.797Z,101017.56
2023-07-19T01:31:17.606Z,101013.19
2023-07-19T01:31:31.386Z,101015.88
2023-07-19T01:31:44.061Z,101015.88
2023-07-19T01:31:56.758Z,101017.56
2023-07-19T01:32:09.918Z,101018.56
2023-07-19T01:32:22.474Z,101015.00
2023-07-19T01:32:35.237Z,101016.88
2023-07-19T01:32:48.006Z,101016.88
2023-07-19T01:33:00.671Z,101016.03
2023-07-19T01:33:23.734Z,101012.50
2023-07-19T01:33:41.940Z,101011.63
2023-07-19T01:33:54.473Z,101011.63
2023-07-19T01:34:07.296Z,101007.22
2023-07-19T01:34:19.893Z,101008.06
2023-07-19T01:34:32.600Z,101001.00
2023-07-19T01:34:45.162Z,101006.38
2023-07-19T01:34:57.748Z,101010.06
2023-07-19T01:35:10.388Z,101010.06
2023-07-19T01:35:26.088Z,101002.13
2023-07-19T01:35:38.638Z,101003.97
2023-07-19T01:35:51.172Z,101006.66
2023-07-19T01:36:04.280Z,101010.19
2023-07-19T01:36:16.805Z,101002.28
2023-07-19T01:36:29.389Z,101001.44
2023-07-19T01:36:41.923Z,101009.50
2023-07-19T01:36:54.436Z,101010.34
2023-07-19T01:37:07.060Z,101004.97
2023-07-19T01:37:19.600Z,101006.81
2023-07-19T01:37:33.574Z,101001.44
2023-07-19T01:37:47.855Z,101009.50
2023-07-19T01:38:00.476Z,101000.56
2023-07-19T01:38:13.162Z,100999.84
2023-07-19T01:38:25.812Z,101002.41
2023-07-19T01:38:38.372Z,101002.56
2023-07-19T01:38:50.951Z,100996.31
2023-07-19T01:39:03.656Z,100993.63
2023-07-19T01:39:16.232Z,101004.41
2023-07-19T01:39:29.794Z,101001.84
2023-07-19T01:39:42.332Z,101002.72
2023-07-19T01:39:55.745Z,100997.34
2023-07-19T01:40:11.828Z,101004.69
2023-07-19T01:40:24.592Z,101002.00
2023-07-19T01:40:37.360Z,101003.81
2023-07-19T01:40:49.968Z,101003.81
2023-07-19T01:41:02.725Z,101006.69
2023-07-19T01:41:16.239Z,101010.22
2023-07-19T01:41:28.779Z,101007.66
2023-07-19T01:41:41.439Z,101002.44
2023-07-19T01:41:54.037Z,101005.25
2023-07-19T01:42:07.505Z,101004.41
2023-07-19T01:42:20.094Z,101005.38
2023-07-19T01:42:32.899Z,101001.84
2023-07-19T01:42:45.465Z,101001.84
2023-07-19T01:42:58.971Z,101009.09
2023-07-19T01:43:11.541Z,101002.00
2023-07-19T01:43:24.149Z,100999.31
2023-07-19T01:43:36.770Z,101002.16
2023-07-19T01:43:49.607Z,100997.75
2023-07-19T01:44:02.166Z,101003.13
2023-07-19T01:44:14.878Z,101006.66
2023-07-19T01:44:28.752Z,101001.41
2023-07-19T01:44:41.424Z,100997.84
2023-07-19T01:44:56.229Z,100997.84
2023-07-19T01:45:09.469Z,101003.22
2023-07-19T01:45:22.108Z,100998.84
2023-07-19T01:45:34.680Z,100998.84
2023-07-19T01:45:47.344Z,100996.16
2023-07-19T01:46:00.360Z,101006.94
2023-07-19T01:46:13.062Z,100995.44
2023-07-19T01:46:26.662Z,100999.81
2023-07-19T01:46:40.874Z,100999.81
2023-07-19T01:46:53.449Z,100999.81
2023-07-19T01:47:06.070Z,101001.69
2023-07-19T01:47:18.606Z,100997.31
2023-07-19T01:47:31.188Z,100996.44
2023-07-19T01:47:44.172Z,101001.81
2023-07-19T01:47:56.977Z,100998.28
2023-07-19T01:48:09.525Z,100994.75
2023-07-19T01:48:23.064Z,101005.50
2023-07-19T01:48:35.652Z,100998.44
2023-07-19T01:48:48.221Z,101001.13
2023-07-19T01:49:00.797Z,101002.94
2023-07-19T01:49:13.344Z,100995.03
2023-07-19T01:49:25.884Z,100990.50
2023-07-19T01:49:40.167Z,100993.31
2023-07-19T01:49:52.833Z,100988.78
2023-07-19T01:50:06.263Z,100997.00
2023-07-19T01:50:19.821Z,100997.00
2023-07-19T01:50:32.490Z,100993.44
2023-07-19T01:50:48.502Z,101000.69
2023-07-19T01:51:01.079Z,100997.00
2023-07-19T01:51:13.654Z,100998.00
2023-07-19T01:51:26.198Z,100999.00
2023-07-19T01:51:39.002Z,101006.06
2023-07-19T01:51:51.520Z,101000.69
2023-07-19T01:52:04.534Z,101005.22
2023-07-19T01:52:18.062Z,101000.81
2023-07-19T01:52:30.624Z,100999.00
2023-07-19T01:52:44.572Z,101005.22
2023-07-19T01:52:57.194Z,100999.84
2023-07-19T01:53:09.744Z,101004.38
2023-07-19T01:53:22.375Z,101002.66
2023-07-19T01:53:34.974Z,100999.97
2023-07-19T01:53:47.590Z,100996.44
2023-07-19T01:54:00.182Z,100999.00
2023-07-19T01:54:13.725Z,100992.75
2023-07-19T01:54:26.360Z,100999.00
2023-07-19T01:54:38.961Z,100999.00
2023-07-19T01:54:51.576Z,100999.84
2023-07-19T01:55:04.464Z,100999.00
2023-07-19T01:55:17.198Z,101005.22
2023-07-19T01:55:29.779Z,100998.00
2023-07-19T01:55:43.116Z,100994.47
2023-07-19T01:55:58.091Z,100995.28
2023-07-19T01:56:10.631Z,101000.69
2023-07-19T01:56:23.281Z,100998.00
2023-07-19T01:56:35.867Z,100997.16
2023-07-19T01:56:48.460Z,100998.00
2023-07-19T01:57:01.197Z,100995.28
2023-07-19T01:57:14.011Z,100992.59
2023-07-19T01:57:26.565Z,100998.84
2023-07-19T01:57:39.127Z,100995.28
2023-07-19T01:57:52.677Z,100994.47
2023-07-19T01:58:05.227Z,100994.47
2023-07-19T01:58:17.858Z,100998.00
2023-07-19T01:58:30.568Z,100992.59
2023-07-19T01:58:43.118Z,100999.00
2023-07-19T01:58:55.684Z,101003.38
2023-07-19T01:59:08.241Z,100997.00
2023-07-19T01:59:20.796Z,100997.16
2023-07-19T01:59:33.590Z,101003.38
2023-07-19T01:59:46.146Z,100997.16
2023-07-19T01:59:59.730Z,100991.91
2023-07-19T02:00:13.049Z,101001.69
2023-07-19T02:00:25.662Z,100999.00
2023-07-19T02:00:38.466Z,100997.28
2023-07-19T02:00:53.166Z,100993.75
2023-07-19T02:01:05.762Z,101000.97
2023-07-19T02:01:19.590Z,101000.97
2023-07-19T02:01:32.595Z,101000.13
2023-07-19T02:01:45.815Z,100999.25
2023-07-19T02:01:59.542Z,101000.25
2023-07-19T02:02:12.353Z,100996.56
2023-07-19T02:02:25.116Z,100993.16
2023-07-19T02:02:37.933Z,101002.94
2023-07-19T02:02:50.730Z,100990.47
2023-07-19T02:03:04.042Z,100995.84
2023-07-19T02:03:16.677Z,100986.09
2023-07-19T02:03:30.506Z,100990.47
2023-07-19T02:03:43.050Z,100994.16
2023-07-19T02:03:55.559Z,100993.16
2023-07-19T02:04:08.115Z,100994.16
2023-07-19T02:04:20.695Z,100995.84
2023-07-19T02:04:33.558Z,100989.63
2023-07-19T02:04:46.150Z,100989.63
2023-07-19T02:04:58.742Z,100994.16
2023-07-19T02:05:11.366Z,100992.31
2023-07-19T02:05:24.936Z,100989.63
2023-07-19T02:05:37.464Z,100992.31
2023-07-19T02:05:57.253Z,100990.47
2023-07-19T02:06:09.778Z,100995.84
2023-07-19T02:06:22.302Z,100985.09
2023-07-19T02:06:34.851Z,100985.09
2023-07-19T02:06:47.451Z,100993.88
2023-07-19T02:07:00.233Z,100989.38
2023-07-19T02:07:12.834Z,100982.41
2023-07-19T02:07:26.712Z,100990.47
2023-07-19T02:07:39.254Z,100983.13
2023-07-19T02:07:53.163Z,100987.78
2023-07-19T02:08:05.841Z,100987.66
2023-07-19T02:08:18.373Z,100986.81
2023-07-19T02:08:30.914Z,100992.31
2023-07-19T02:08:43.421Z,100985.09
2023-07-19T02:08:56.089Z,100987.78
2023-07-19T02:09:08.613Z,100984.25
2023-07-19T02:09:22.154Z,100979.88
2023-07-19T02:09:34.899Z,100988.78
2023-07-19T02:09:47.791Z,100992.44
2023-07-19T02:10:00.446Z,100987.25
2023-07-19T02:10:12.993Z,100988.09
2023-07-19T02:10:25.499Z,100991.63
2023-07-19T02:10:38.211Z,100989.94
2023-07-19T02:10:50.767Z,100990.06
2023-07-19T02:11:04.347Z,100986.38
2023-07-19T02:11:16.956Z,100981.16
2023-07-19T02:11:29.790Z,100986.53
2023-07-19T02:11:42.715Z,100987.38
2023-07-19T02:11:55.360Z,100986.66
2023-07-19T02:12:09.219Z,100990.19
2023-07-19T02:12:21.824Z,100986.66
2023-07-19T02:12:34.503Z,100990.19
2023-07-19T02:12:47.054Z,100990.19
2023-07-19T02:12:59.570Z,100990.19
2023-07-19T02:13:12.064Z,100988.50
2023-07-19T02:13:25.700Z,100992.03
2023-07-19T02:13:38.265Z,100986.66
2023-07-19T02:13:50.816Z,100988.38
2023-07-19T02:14:03.343Z,100990.19
2023-07-19T02:14:16.177Z,100993.75
2023-07-19T02:14:28.719Z,100996.44
2023-07-19T02:14:41.267Z,100983.97
2023-07-19T02:14:56.036Z,100992.75
2023-07-19T02:15:09.134Z,100991.06
2023-07-19T02:15:21.664Z,100991.91
2023-07-19T02:15:34.743Z,100989.34
2023-07-19T02:15:47.599Z,100987.50
2023-07-19T02:16:00.224Z,100992.88
2023-07-19T02:16:12.849Z,100986.66
2023-07-19T02:16:25.510Z,100990.19
2023-07-19T02:16:39.598Z,100989.34
2023-07-19T02:16:52.111Z,100988.50
2023-07-19T02:17:05.536Z,100982.28
2023-07-19T02:17:18.366Z,100992.03
2023-07-19T02:17:30.994Z,100992.88
2023-07-19T02:17:43.619Z,100993.88
2023-07-19T02:17:56.148Z,100985.81
2023-07-19T02:18:08.669Z,100988.63
2023-07-19T02:18:23.317Z,100991.31
2023-07-19T02:18:35.870Z,100992.16
2023-07-19T02:18:48.459Z,100989.63
2023-07-19T02:19:01.220Z,100990.34
2023-07-19T02:19:13.800Z,100994.00
2023-07-19T02:19:26.805Z,100991.31
2023-07-19T02:19:39.490Z,100988.63
2023-07-19T02:19:53.011Z,100995.03
2023-07-19T02:20:06.858Z,100986.06
2023-07-19T02:20:20.575Z,100988.75
2023-07-19T02:20:33.111Z,100985.22
2023-07-19T02:20:46.610Z,100994.16
2023-07-19T02:20:59.198Z,100989.78
2023-07-19T02:21:11.801Z,100994.16
2023-07-19T02:21:24.394Z,100988.94
2023-07-19T02:21:36.916Z,100997.00
2023-07-19T02:21:49.445Z,100997.84
2023-07-19T02:22:03.241Z,100987.22
2023-07-19T02:22:16.922Z,100991.63
2023-07-19T02:22:29.510Z,100993.44
2023-07-19T02:22:42.107Z,100990.75
2023-07-19T02:22:56.158Z,100993.44
2023-07-19T02:23:08.791Z,101000.66
2023-07-19T02:23:23.416Z,100985.38
2023-07-19T02:23:36.534Z,100991.63
2023-07-19T02:23:49.081Z,100982.69
2023-07-19T02:24:02.497Z,100993.44
2023-07-19T02:24:16.158Z,100990.75
2023-07-19T02:24:28.720Z,100988.06
2023-07-19T02:24:41.238Z,100989.91
2023-07-19T02:24:53.767Z,100991.63
2023-07-19T02:25:06.591Z,100992.47
2023-07-19T02:25:19.140Z,100991.63
2023-07-19T02:25:32.644Z,100986.25
2023-07-19T02:25:45.294Z,100983.56
2023-07-19T02:25:57.853Z,100987.91
2023-07-19T02:26:10.455Z,100983.56
2023-07-19T02:26:22.948Z,100980.84
2023-07-19T02:26:35.559Z,100988.94
2023-07-19T02:26:48.089Z,100987.09
2023-07-19T02:27:00.607Z,100987.09
2023-07-19T02:27:13.396Z,100982.53
2023-07-19T02:27:26.222Z,100985.22
2023-07-19T02:27:39.718Z,100982.53
2023-07-19T02:27:52.264Z,100993.31
2023-07-19T02:28:05.134Z,100988.75
2023-07-19T02:28:17.906Z,100982.53
2023-07-19T02:28:30.552Z,100983.38
2023-07-19T02:28:43.229Z,100985.22
2023-07-19T02:28:55.813Z,100983.56
2023-07-19T02:29:08.377Z,100978.16
2023-07-19T02:29:20.921Z,100980.84
2023-07-19T02:29:34.449Z,100979.16
2023-07-19T02:29:47.090Z,100978.31
2023-07-19T02:29:59.693Z,100976.44
2023-07-19T02:30:12.909Z,100975.63
2023-07-19T02:30:25.465Z,100971.25
2023-07-19T02:30:42.430Z,100977.47
2023-07-19T02:30:55.029Z,100970.38
2023-07-19T02:31:08.505Z,100974.91
2023-07-19T02:31:21.281Z,100969.53